NCAR-RAP Real-Time Weather Data

Output produced by METARs form (12 May 2021  10:19 UTC)
found at http://weather.rap.ucar.edu/surface/
 
KGRR 120953Z 34003KT 10SM CLR 03/M02 A3042 RMK AO2 SLP304 T00281022
KGRR 120853Z AUTO 33003KT 10SM CLR 03/M02 A3041 RMK AO2 SLP301 T00281022 53004
KGRR 120753Z AUTO 33003KT 10SM CLR 03/M03 A3040 RMK AO2 SLP298 T00281028
KGRR 120653Z AUTO 00000KT 10SM CLR 05/M03 A3040 RMK AO2 SLP298 T00501033
KGRR 120553Z AUTO 32005KT 10SM CLR 05/M03 A3039 RMK AO2 SLP296 T00501028 10117 20044 50005
KGRR 120453Z AUTO 32006KT 10SM CLR 06/M03 A3040 RMK AO2 SLP297 T00611028 401390011
KGRR 120353Z 32006KT 10SM CLR 07/M03 A3039 RMK AO2 SLP294 LAST T00671033
KGRR 120253Z 31006KT 10SM CLR 08/M03 A3038 RMK AO2 SLP290 T00781033 53024
KGRR 120153Z 33005KT 10SM CLR 08/M03 A3035 RMK AO2 SLP282 T00831033
KGRR 120053Z 33008KT 10SM FEW060 09/M03 A3032 RMK AO2 SLP272 T00941033
KGRR 112353Z 33008KT 10SM FEW065 SCT230 12/M03 A3030 RMK AO2 SLP267 T01171028 10139 20106 53013
KGRR 112253Z 36009KT 10SM SCT070 SCT230 11/M03 A3029 RMK AO2 SLP262 T01111028
KGRR 112153Z 32013G18KT 10SM BKN065 BKN230 13/M02 A3028 RMK AO2 SLP258 T01331022
KGRR 112053Z 31009G18KT 10SM BKN065 13/M01 A3027 RMK AO2 SLP254 T01281011 56009
KGRR 111953Z VRB06G16KT 10SM BKN055 12/M02 A3027 RMK AO2 SLP254 T01221017
KGRR 111853Z 32013KT 10SM BKN055 12/M02 A3028 RMK AO2 SLP258 T01221017